This is the latest recevied weather packets stored in our database for station/object Dukovany. If no packets are shown the sender has not sent any weather packets the latest 1 day(s).
| Time | Temp. | Humidity | Pressure | Rain* | Wind** | Luminosity | Snow |
|---|---|---|---|---|---|---|---|
| 1778019648 | 15° C | 58% | - | - | 4.02 m/s, 90° | - | - |
| 1778016099 | 15° C | 58% | - | - | 4.02 m/s, 100° | - | - |
| 1778012465 | 16.11° C | 55% | - | - | 3.13 m/s, 90° | - | - |
| 1778008882 | 17.22° C | 51% | - | - | 4.02 m/s, 100° | - | - |
| 1778005265 | 20° C | 40% | - | - | 7.15 m/s, 120° | - | - |
| 1778001682 | 22.22° C | 35% | - | - | 8.05 m/s, 130° | - | - |
| 1777998157 | 23.89° C | 29% | - | - | 6.26 m/s, 120° | - | - |
| 1777994464 | 25° C | 25% | - | - | 5.36 m/s, 130° | - | - |
| 1777990865 | 25° C | 29% | - | - | 6.26 m/s, 160° | - | - |
| 1777987251 | 23.89° C | 33% | - | - | 6.26 m/s, 130° | - | - |
| 1777983650 | 22.78° C | 38% | - | - | 6.26 m/s, 120° | - | - |
| 1777980051 | 22.22° C | 37% | - | - | 5.36 m/s, 130° | - | - |
| 1777976451 | 20° C | 45% | - | - | 5.36 m/s, 120° | - | - |
| 1777972848 | 17.78° C | 45% | - | - | 4.02 m/s, 120° | - | - |
| 1777969250 | 16.11° C | 48% | - | - | 3.13 m/s, 90° | - | - |
| 1777965649 | 15° C | 47% | - | - | 4.02 m/s, 100° | - | - |
| 1777962050 | 13.89° C | 47% | - | - | 3.13 m/s, 70° | - | - |
| 1777958448 | 12.22° C | 54% | - | - | 2.24 m/s, 90° | - | - |
| 1777954849 | 10° C | 61% | - | - | 2.24 m/s, 80° | - | - |
| 1777951248 | 11.11° C | 57% | - | - | 2.24 m/s, 60° | - | - |
| 1777947647 | 12.78° C | 50% | - | - | 2.24 m/s, 80° | - | - |
| 1777944050 | 12.78° C | 47% | - | - | 3.13 m/s, 70° | - | - |
| 1777940449 | 13.89° C | 44% | - | - | 4.02 m/s, 70° | - | - |
| 1777936881 | 13.89° C | 47% | - | - | 4.02 m/s, 60° | - | - |
* Rain since midnight (hover to see other rain measurements)
** Current wind speed in m/s (hover to see current wind gust speed)